Map

Track Data

SID SEASON NUMBER BASIN SUBBASIN NAME ISO_TIME NATURE LAT LON WMO_WIND WMO_PRES WMO_AGENCY TRACK_TYPE DIST2LAND LANDFALL IFLAG USA_AGENCY USA_ATCF_ID USA_LAT USA_LON USA_RECORD USA_STATUS USA_WIND USA_PRES USA_SSHS USA_R34_NE USA_R34_SE USA_R34_SW USA_R34_NW USA_R50_NE USA_R50_SE USA_R50_SW USA_R50_NW USA_R64_NE USA_R64_SE USA_R64_SW USA_R64_NW USA_POCI USA_ROCI USA_RMW USA_EYE TOKYO_LAT TOKYO_LON TOKYO_GRADE TOKYO_WIND TOKYO_PRES TOKYO_R50_DIR TOKYO_R50_LONG TOKYO_R50_SHORT TOKYO_R30_DIR TOKYO_R30_LONG TOKYO_R30_SHORT TOKYO_LAND CMA_LAT CMA_LON CMA_CAT CMA_WIND CMA_PRES HKO_LAT HKO_LON HKO_CAT HKO_WIND HKO_PRES NEWDELHI_LAT NEWDELHI_LON NEWDELHI_GRADE NEWDELHI_WIND NEWDELHI_PRES NEWDELHI_CI NEWDELHI_DP NEWDELHI_POCI REUNION_LAT REUNION_LON REUNION_TYPE REUNION_WIND REUNION_PRES REUNION_TNUM REUNION_CI REUNION_RMW REUNION_R34_NE REUNION_R34_SE REUNION_R34_SW REUNION_R34_NW REUNION_R50_NE REUNION_R50_SE REUNION_R50_SW REUNION_R50_NW REUNION_R64_NE REUNION_R64_SE REUNION_R64_SW REUNION_R64_NW BOM_LAT BOM_LON BOM_TYPE BOM_WIND BOM_PRES BOM_TNUM BOM_CI BOM_RMW BOM_R34_NE BOM_R34_SE BOM_R34_SW BOM_R34_NW BOM_R50_NE BOM_R50_SE BOM_R50_SW BOM_R50_NW BOM_R64_NE BOM_R64_SE BOM_R64_SW BOM_R64_NW BOM_ROCI BOM_POCI BOM_EYE BOM_POS_METHOD BOM_PRES_METHOD NADI_LAT NADI_LON NADI_CAT NADI_WIND NADI_PRES WELLINGTON_LAT WELLINGTON_LON WELLINGTON_WIND WELLINGTON_PRES DS824_LAT DS824_LON DS824_STAGE DS824_WIND DS824_PRES TD9636_LAT TD9636_LON TD9636_STAGE TD9636_WIND TD9636_PRES TD9635_LAT TD9635_LON TD9635_WIND TD9635_PRES TD9635_ROCI NEUMANN_LAT NEUMANN_LON NEUMANN_CLASS NEUMANN_WIND NEUMANN_PRES MLC_LAT MLC_LON MLC_CLASS MLC_WIND MLC_PRES USA_GUST BOM_GUST BOM_GUST_PER REUNION_GUST REUNION_GUST_PER USA_SEAHGT USA_SEARAD_NE USA_SEARAD_SE USA_SEARAD_SW USA_SEARAD_NW STORM_SPEED STORM_DIR
1957086S12160 1957 27 SP MM NOT_NAMED 1957-03-26 12:00:00 TS -11.7000 160.200 main 187 187 O________OO___ jtwc_sh SH291957 -11.7000 160.200 -1 -11.7000 160.200 TC -11.7000 160.200 1 16 151
1957086S12160 1957 27 SP MM NOT_NAMED 1957-03-26 15:00:00 TS -12.4086 160.603 main 221 221 P________PP___ SH291957 -12.4126 160.595 -1 -12.4126 160.595 TC -12.4006 160.618 1 16 150
1957086S12160 1957 27 SP MM NOT_NAMED 1957-03-26 18:00:00 TS -13.0936 161.010 main 271 271 O________OP___ jtwc_sh SH291957 -13.1000 161.000 -1 -13.1000 161.000 TC -13.0808 161.030 1 16 149
1957086S12160 1957 27 SP MM NOT_NAMED 1957-03-26 21:00:00 TS -13.7318 161.419 main 327 327 P________PP___ SH291957 -13.7375 161.415 -1 -13.7375 161.415 TC -13.7205 161.427 1 14 148
1957086S12160 1957 27 SP MM NOT_NAMED 1957-03-27 00:00:00 TS -14.3000 161.800 main 391 391 O________OO___ jtwc_sh SH291957 -14.3000 161.800 -1 -14.3000 161.800 TC -14.3000 161.800 1 13 147
1957086S12160 1957 27 SP MM NOT_NAMED 1957-03-27 03:00:00 TS -14.7884 162.120 main 447 441 P________PP___ SH291957 -14.7799 162.108 -1 -14.7799 162.108 TC -14.8055 162.143 1 11 147
1957086S12160 1957 27 SP MM NOT_NAMED 1957-03-27 06:00:00 TS -15.2156 162.422 main 442 415 O________OP___ jtwc_sh SH291957 -15.2000 162.400 -1 -15.2000 162.400 TC -15.2469 162.466 1 10 144
1957086S12160 1957 27 SP MM NOT_NAMED 1957-03-27 09:00:00 TS -15.6233 162.755 main 407 380 P________PP___ SH291957 -15.6150 162.743 -1 -15.6150 162.743 TC -15.6399 162.781 1 10 140
1957086S12160 1957 27 SP MM NOT_NAMED 1957-03-27 12:00:00 TS -16.0000 163.100 main 380 356 O________OO___ jtwc_sh SH291957 -16.0000 163.100 -1 -16.0000 163.100 TC -16.0000 163.100 1 10 138
1957086S12160 1957 27 SP MM NOT_NAMED 1957-03-27 15:00:00 TS -16.3625 163.449 main 360 332 P________PP___ SH291957 -16.3649 163.450 -1 -16.3649 163.450 TC -16.3577 163.447 1 10 136
1957086S12160 1957 27 SP MM NOT_NAMED 1957-03-27 18:00:00 TS -16.6958 163.800 main 332 315 O________OP___ jtwc_sh SH291957 -16.7000 163.800 -1 -16.7000 163.800 TC -16.6874 163.801 1 9 134
1957086S12160 1957 27 SP MM NOT_NAMED 1957-03-27 21:00:00 TS -17.0044 164.151 main 312 303 P________PP___ SH291957 -17.0074 164.150 -1 -17.0074 164.150 TC -16.9983 164.154 1 9 132
1957086S12160 1957 27 SP MM NOT_NAMED 1957-03-28 00:00:00 TS -17.3000 164.500 main 303 290 O________OO___ jtwc_sh SH291957 -17.3000 164.500 -1 -17.3000 164.500 TC -17.3000 164.500 1 9 132
1957086S12160 1957 27 SP MM NOT_NAMED 1957-03-28 03:00:00 TS -17.6078 164.853 main 288 275 P________PP___ SH291957 -17.6000 164.858 -1 -17.6000 164.858 TC -17.6233 164.844 1 9 133
1957086S12160 1957 27 SP MM NOT_NAMED 1957-03-28 06:00:00 TS -17.9125 165.193 main 278 253 O________OP___ jtwc_sh SH291957 -17.9000 165.200 -1 -17.9000 165.200 TC -17.9374 165.180 1 9 134
1957086S12160 1957 27 SP MM NOT_NAMED 1957-03-28 09:00:00 TS -18.2209 165.510 main 257 241 P________PP___ SH291957 -18.2149 165.515 -1 -18.2149 165.515 TC -18.2328 165.501 1 8 136
1957086S12160 1957 27 SP MM NOT_NAMED 1957-03-28 12:00:00 TS -18.5000 165.800 main 243 238 O________OO___ jtwc_sh SH291957 -18.5000 165.800 -1 -18.5000 165.800 TC -18.5000 165.800 1 7 134
1957086S12160 1957 27 SP MM NOT_NAMED 1957-03-28 15:00:00 TS -18.7139 166.049 main 238 236 P________PP___ SH291957 -18.7149 166.058 -1 -18.7149 166.058 TC -18.7118 166.032 1 6 131
1957086S12160 1957 27 SP MM NOT_NAMED 1957-03-28 18:00:00 TS -18.8996 166.283 main 241 233 O________OP___ jtwc_sh SH291957 -18.9000 166.300 -1 -18.9000 166.300 TC -18.8989 166.249 1 6 130
1957086S12160 1957 27 SP MM NOT_NAMED 1957-03-28 21:00:00 TS -19.0854 166.511 main 233 229 P________PP___ SH291957 -19.0848 166.520 -1 -19.0848 166.520 TC -19.0866 166.492 1 6 129
1957086S12160 1957 27 SP MM NOT_NAMED 1957-03-29 00:00:00 TS -19.3000 166.800 main 236 236 O________OO___ jtwc_sh SH291957 -19.3000 166.800 -1 -19.3000 166.800 TC -19.3000 166.800 1 8 127
1957086S12160 1957 27 SP MM NOT_NAMED 1957-03-29 03:00:00 TS -19.5834 167.221 main 241 236 P________PP___ SH291957 -19.5850 167.205 -1 -19.5850 167.205 TC -19.5802 167.252 1 11 124
1957086S12160 1957 27 SP MM NOT_NAMED 1957-03-29 06:00:00 TS -19.8954 167.723 main 242 239 O________OP___ jtwc_sh SH291957 -19.9000 167.700 -1 -19.9000 167.700 TC -19.8862 167.769 1 12 122
1957086S12160 1957 27 SP MM NOT_NAMED 1957-03-29 09:00:00 TS -20.2048 168.287 main 257 254 P________PP___ SH291957 -20.2078 168.280 -1 -20.2078 168.280 TC -20.1989 168.302 1 12 121
1957086S12160 1957 27 SP MM NOT_NAMED 1957-03-29 12:00:00 TS -20.5000 168.800 main 265 265 O________OO___ jtwc_sh SH291957 -20.5000 168.800 -1 -20.5000 168.800 TC -20.5000 168.800 1 9 126
1957086S12160 1957 27 SP MM NOT_NAMED 1957-03-29 15:00:00 TS -20.7491 169.077 main 274 267 P________PP___ SH291957 -20.7570 169.066 -1 -20.7570 169.066 TC -20.7332 169.099 1 7 135
1957086S12160 1957 27 SP MM NOT_NAMED 1957-03-29 18:00:00 TS -20.9860 169.323 main 272 272 O________OP___ jtwc_sh SH291957 -21.0000 169.300 -1 -21.0000 169.300 TC -20.9581 169.370 1 7 131
1957086S12160 1957 27 SP MM NOT_NAMED 1957-03-29 21:00:00 TS -21.2243 169.671 main 300 296 P________PP___ SH291957 -21.2343 169.653 -1 -21.2343 169.653 TC -21.2042 169.706 1 10 122
1957086S12160 1957 27 SP MM NOT_NAMED 1957-03-30 00:00:00 TS -21.5000 170.200 main 339 339 O________OO___ jtwc_sh SH291957 -21.5000 170.200 -1 -21.5000 170.200 TC -21.5000 170.200 1 14 116
1957086S12160 1957 27 SP MM NOT_NAMED 1957-03-30 03:00:00 TS -21.8272 171.002 main 414 414 P________PP___ SH291957 -21.8127 171.018 -1 -21.8127 171.018 TC -21.8561 170.970 1 18 114
1957086S12160 1957 27 SP MM NOT_NAMED 1957-03-30 06:00:00 TS -22.2208 171.969 main 514 514 O________OP___ jtwc_sh SH291957 -22.2000 172.000 -1 -22.2000 172.000 TC -22.2623 171.906 1 20 115
1957086S12160 1957 27 SP MM NOT_NAMED 1957-03-30 09:00:00 TS -22.6838 172.970 main 617 617 P________PP___ SH291957 -22.6697 172.985 -1 -22.6697 172.985 TC -22.7120 172.939 1 21 118
1957086S12160 1957 27 SP MM NOT_NAMED 1957-03-30 12:00:00 TS -23.2000 174.000 main 665 659 O________OO___ jtwc_sh SH291957 -23.2000 174.000 -1 -23.2000 174.000 TC -23.2000 174.000 1 21 119
1957086S12160 1957 27 SP MM NOT_NAMED 1957-03-30 15:00:00 TS -23.7362 174.996 main 670 670 P________PP___ SH291957 -23.7419 175.001 -1 -23.7419 175.001 TC -23.7248 174.986 1 21 121
1957086S12160 1957 27 SP MM NOT_NAMED 1957-03-30 18:00:00 TS -24.2943 175.995 main 699 696 O________OP___ jtwc_sh SH291957 -24.3000 176.000 -1 -24.3000 176.000 TC -24.2830 175.985 1 21 122
1957086S12160 1957 27 SP MM NOT_NAMED 1957-03-30 21:00:00 TS -24.8545 176.998 main 743 741 P________PP___ SH291957 -24.8568 177.001 -1 -24.8568 177.001 TC -24.8497 176.993 1 21 121
1957086S12160 1957 27 SP MM NOT_NAMED 1957-03-31 00:00:00 TS -25.4000 178.000 main 793 793 O________OO___ jtwc_sh SH291957 -25.4000 178.000 -1 -25.4000 178.000 TC -25.4000 178.000 1 21 120
1957086S12160 1957 27 SP MM NOT_NAMED 1957-03-31 03:00:00 TS -25.9106 179.007 main 853 853 P________PP___ SH291957 -25.9143 179.001 -1 -25.9143 179.001 TC -25.9033 179.018 1 21 119
1957086S12160 1957 27 SP MM NOT_NAMED 1957-03-31 06:00:00 TS -26.3953 180.011 main 924 924 O________OP___ jtwc_sh SH291957 -26.4000 180.000 -1 -26.4000 180.000 TC -26.3858 -179.967 1 20 118
1957086S12160 1957 27 SP MM NOT_NAMED 1957-03-31 09:00:00 TS -26.8548 181.016 main 1003 1003 P________PP___ SH291957 -26.8569 -178.992 -1 -26.8569 -178.992 TC -26.8504 -178.969 1 20 117
1957086S12160 1957 27 SP MM NOT_NAMED 1957-03-31 12:00:00 TS -27.3000 182.000 main 1078 1078 O________OO___ jtwc_sh SH291957 -27.3000 -178.000 -1 -27.3000 182.000 TC -27.3000 -178.000 1 19 117
1957086S12160 1957 27 SP MM NOT_NAMED 1957-03-31 15:00:00 TS -27.7506 182.959 main 1169 1164 P________PP___ SH291957 -27.7570 -177.027 -1 -27.7570 -177.027 TC -27.7378 -177.068 1 19 118
1957086S12160 1957 27 SP MM NOT_NAMED 1957-03-31 18:00:00 TS -28.1887 183.878 main 1168 1159 O________OP___ jtwc_sh SH291957 -28.2000 -176.100 -1 -28.2000 183.900 TC -28.1661 -176.165 1 18 118
1957086S12160 1957 27 SP MM NOT_NAMED 1957-03-31 21:00:00 TS -28.6027 184.751 main 1166 1160 P________PP___ SH291957 -28.6109 -175.234 -1 -28.6109 -175.234 TC -28.5864 -175.280 1 17 118
1957086S12160 1957 27 SP MM NOT_NAMED 1957-04-01 00:00:00 TS -29.0000 185.600 main 1166 O________OO___ jtwc_sh SH291957 -29.0000 -174.400 -1 -29.0000 185.600 TC -29.0000 -174.400 1 17 118

Digital Typhoon Data and Search

About IBTrACS Database

This database is a web-friendly format of International Best Track Archive for Climate Stewardship (IBTrACS), a global best track data archive curated by NOAA dating back to 1842.

Updated: 2021-10-08